createdAt,value
2023-05-01T00:03:00.742Z,7.43
2023-05-01T00:06:24.599Z,7.27
2023-05-01T00:09:48.156Z,7.63
2023-05-01T00:13:11.651Z,7.43
2023-05-01T00:16:37.104Z,8.10
2023-05-01T00:20:00.639Z,8.07
2023-05-01T00:23:24.239Z,7.63
2023-05-01T00:26:47.939Z,7.53
2023-05-01T00:30:12.397Z,7.40
2023-05-01T00:33:37.281Z,7.90
2023-05-01T00:37:00.817Z,8.80
2023-05-01T00:40:24.494Z,7.50
2023-05-01T00:43:48.078Z,9.13
2023-05-01T00:47:11.724Z,7.57
2023-05-01T00:50:37.048Z,7.10
2023-05-01T00:54:01.769Z,8.20
2023-05-01T00:57:25.807Z,9.17
2023-05-01T01:00:50.552Z,9.33
2023-05-01T01:04:14.484Z,8.37
2023-05-01T01:07:50.356Z,8.63
2023-05-01T01:11:21.553Z,7.53
2023-05-01T01:14:51.914Z,7.70
2023-05-01T01:18:28.729Z,7.37
2023-05-01T01:21:59.701Z,7.60
2023-05-01T01:26:00.091Z,7.20
2023-05-01T01:29:49.550Z,7.43
2023-05-01T01:33:39.388Z,8.03
2023-05-01T01:37:08.989Z,7.43
2023-05-01T01:40:38.575Z,6.50
2023-05-01T01:44:08.402Z,7.93
2023-05-01T01:47:34.028Z,8.20
2023-05-01T01:51:00.881Z,7.83
2023-05-01T01:54:30.121Z,6.80
2023-05-01T01:57:54.511Z,7.93
2023-05-01T02:01:19.626Z,8.17
2023-05-01T02:04:45.072Z,7.87
2023-05-01T02:08:11.469Z,6.67
2023-05-01T02:11:37.751Z,7.63
2023-05-01T02:15:01.923Z,7.50
2023-05-01T02:18:27.710Z,6.53
2023-05-01T02:21:53.142Z,6.67
2023-05-01T02:25:18.340Z,6.50
2023-05-01T02:28:42.326Z,6.90
2023-05-01T02:32:06.245Z,6.80
2023-05-01T02:35:30.010Z,6.93
2023-05-01T02:38:53.624Z,7.47
2023-05-01T02:42:23.132Z,7.57
2023-05-01T02:45:48.962Z,7.10
2023-05-01T02:49:14.449Z,6.60
2023-05-01T02:52:39.071Z,6.00
2023-05-01T02:56:29.281Z,6.60
2023-05-01T02:59:54.839Z,6.67
2023-05-01T03:03:18.687Z,6.43
2023-05-01T03:06:44.257Z,5.90
2023-05-01T03:10:08.807Z,6.10
2023-05-01T03:13:32.322Z,6.33
2023-05-01T03:16:58.239Z,6.33
2023-05-01T03:20:21.819Z,6.90
2023-05-01T03:23:45.371Z,6.33
2023-05-01T03:27:09.191Z,6.73
2023-05-01T03:30:35.150Z,6.23
2023-05-01T03:34:00.765Z,6.97
2023-05-01T03:37:24.519Z,6.60
2023-05-01T03:40:48.048Z,8.60
2023-05-01T03:44:30.281Z,5.73
2023-05-01T03:47:54.108Z,6.90
2023-05-01T03:51:19.257Z,7.70
2023-05-01T03:54:44.155Z,7.40
2023-05-01T03:58:16.434Z,7.50
2023-05-01T04:01:41.815Z,6.50
2023-05-01T04:05:05.920Z,6.77
2023-05-01T04:08:31.078Z,6.90
2023-05-01T04:11:54.693Z,6.60
2023-05-01T04:15:18.335Z,7.37
2023-05-01T04:18:42.527Z,6.90
2023-05-01T04:22:06.491Z,7.00
2023-05-01T04:25:32.888Z,6.63
2023-05-01T04:29:02.791Z,6.83
2023-05-01T04:32:26.449Z,7.60
2023-05-01T04:35:50.051Z,6.77
2023-05-01T04:39:13.666Z,6.70
2023-05-01T04:42:40.566Z,6.67
2023-05-01T04:46:07.090Z,6.30
2023-05-01T04:49:31.050Z,6.70
2023-05-01T04:52:54.759Z,5.97
2023-05-01T04:56:18.244Z,5.87
2023-05-01T04:59:44.481Z,6.50
2023-05-01T05:03:08.332Z,6.50
2023-05-01T05:06:32.156Z,5.80
2023-05-01T05:09:56.067Z,6.87
2023-05-01T05:13:20.539Z,6.60
2023-05-01T05:16:52.193Z,5.47
2023-05-01T05:20:16.371Z,5.67
2023-05-01T05:23:39.930Z,5.50
2023-05-01T05:27:04.007Z,6.57
2023-05-01T05:30:27.656Z,6.10
2023-05-01T05:33:52.804Z,6.60
2023-05-01T05:37:16.410Z,6.70
2023-05-01T05:40:46.461Z,6.27
2023-05-01T05:44:10.021Z,6.53
2023-05-01T05:47:33.693Z,6.23
2023-05-01T05:50:59.084Z,6.83
2023-05-01T05:54:22.649Z,6.17
2023-05-01T05:57:46.232Z,6.17
2023-05-01T06:01:09.791Z,5.77
2023-05-01T06:04:34.541Z,5.77
2023-05-01T06:07:59.391Z,5.73
2023-05-01T06:11:23.551Z,7.57
2023-05-01T06:14:47.828Z,5.70
2023-05-01T06:18:12.688Z,5.27
2023-05-01T06:21:36.314Z,5.50
2023-05-01T06:25:02.542Z,6.93
2023-05-01T06:28:27.249Z,6.73
2023-05-01T06:31:51.687Z,5.80
2023-05-01T06:35:16.619Z,5.90
2023-05-01T06:38:41.420Z,6.10
2023-05-01T06:42:07.661Z,7.00
2023-05-01T06:45:39.588Z,6.50
2023-05-01T06:49:03.184Z,5.23
2023-05-01T06:52:26.790Z,5.93
2023-05-01T06:55:50.500Z,5.90
2023-05-01T06:59:15.440Z,5.80
2023-05-01T07:02:42.129Z,5.87
2023-05-01T07:06:06.059Z,6.23
2023-05-01T07:09:29.674Z,5.77
2023-05-01T07:12:53.228Z,5.43
2023-05-01T07:16:18.210Z,5.50
2023-05-01T07:19:41.886Z,5.60
2023-05-01T07:23:07.433Z,5.07
2023-05-01T07:26:31.422Z,6.50
2023-05-01T07:29:56.936Z,6.40
2023-05-01T07:33:25.927Z,6.03
2023-05-01T07:36:49.523Z,5.60
2023-05-01T07:40:13.472Z,6.30
2023-05-01T07:43:37.010Z,4.80
2023-05-01T07:47:04.238Z,6.03
2023-05-01T07:50:29.229Z,5.83
2023-05-01T07:53:52.980Z,4.80
2023-05-01T07:57:16.647Z,5.20
2023-05-01T08:00:40.300Z,5.63
2023-05-01T08:04:03.928Z,5.50
2023-05-01T08:07:29.011Z,5.23
2023-05-01T08:10:53.144Z,5.13
2023-05-01T08:14:17.605Z,5.13
2023-05-01T08:17:41.227Z,4.87
2023-05-01T08:21:04.963Z,5.10
2023-05-01T08:24:30.420Z,5.20
2023-05-01T08:27:54.060Z,5.40
2023-05-01T08:31:19.305Z,4.83
2023-05-01T08:34:42.956Z,4.93
2023-05-01T08:38:06.708Z,4.57
2023-05-01T08:41:33.459Z,4.87
2023-05-01T08:44:59.842Z,4.27
2023-05-01T08:48:25.160Z,4.73
2023-05-01T08:51:52.455Z,4.73
2023-05-01T08:55:16.768Z,4.90
2023-05-01T08:58:42.333Z,4.63
2023-05-01T09:02:08.100Z,5.40
2023-05-01T09:05:33.664Z,4.60
2023-05-01T09:08:57.656Z,5.10
2023-05-01T09:12:25.677Z,4.23
2023-05-01T09:15:50.809Z,4.60
2023-05-01T09:19:14.455Z,4.93
2023-05-01T09:22:38.666Z,4.63
2023-05-01T09:26:05.185Z,4.70
2023-05-01T09:29:43.775Z,4.50
2023-05-01T09:33:10.384Z,3.73
2023-05-01T09:36:37.003Z,4.33
2023-05-01T09:40:08.685Z,5.00
2023-05-01T09:43:32.462Z,4.43
2023-05-01T09:46:56.020Z,3.50
2023-05-01T09:50:32.410Z,4.20
2023-05-01T09:53:57.555Z,4.60
2023-05-01T09:57:38.201Z,4.03
2023-05-01T10:01:01.848Z,4.23
2023-05-01T10:04:31.896Z,4.57
2023-05-01T10:08:02.348Z,4.00
2023-05-01T10:11:26.828Z,3.93
2023-05-01T10:14:54.811Z,4.10
2023-05-01T10:18:19.336Z,3.30
2023-05-01T10:21:43.146Z,3.00
2023-05-01T10:25:11.432Z,2.60
2023-05-01T10:28:35.277Z,3.23
2023-05-01T10:31:59.905Z,2.70
2023-05-01T10:35:28.786Z,2.97
2023-05-01T10:38:52.539Z,3.20
2023-05-01T10:42:18.221Z,2.90
2023-05-01T10:45:41.832Z,3.10
2023-05-01T10:49:05.468Z,2.77
2023-05-01T10:52:29.086Z,3.03
2023-05-01T10:55:52.708Z,3.03
2023-05-01T10:59:17.722Z,2.37
2023-05-01T11:02:41.621Z,3.77
2023-05-01T11:06:09.076Z,2.80
2023-05-01T11:09:41.092Z,3.43
2023-05-01T11:13:04.810Z,2.63
2023-05-01T11:16:48.455Z,3.63
2023-05-01T11:20:13.070Z,3.00
2023-05-01T11:23:37.356Z,3.10
2023-05-01T11:27:01.010Z,3.60
2023-05-01T11:30:25.926Z,2.67
2023-05-01T11:33:51.048Z,3.20
2023-05-01T11:37:14.564Z,2.73
2023-05-01T11:40:38.183Z,3.00
2023-05-01T11:44:01.967Z,3.00
2023-05-01T11:47:27.447Z,3.00
2023-05-01T11:50:52.416Z,2.83
2023-05-01T11:54:16.036Z,3.03
2023-05-01T11:57:50.092Z,3.00
2023-05-01T12:01:14.128Z,2.67
2023-05-01T12:04:38.376Z,3.30
2023-05-01T12:08:10.945Z,2.60
2023-05-01T12:11:35.051Z,2.60
2023-05-01T12:14:59.251Z,2.80
2023-05-01T12:18:23.641Z,2.70
2023-05-01T12:21:47.380Z,2.70
2023-05-01T12:25:14.490Z,3.37
2023-05-01T12:28:38.414Z,3.10
2023-05-01T12:32:02.225Z,3.03
2023-05-01T12:35:31.075Z,2.33
2023-05-01T12:39:00.640Z,2.60
2023-05-01T12:42:26.427Z,2.80
2023-05-01T12:45:53.522Z,2.47
2023-05-01T12:49:19.049Z,2.80
2023-05-01T12:52:42.982Z,3.00
2023-05-01T12:56:06.809Z,3.10
2023-05-01T12:59:31.827Z,3.00
2023-05-01T13:02:55.533Z,2.77
2023-05-01T13:06:19.257Z,3.03
2023-05-01T13:09:53.100Z,2.50
2023-05-01T13:13:25.455Z,2.77
2023-05-01T13:16:51.055Z,3.23
2023-05-01T13:20:16.146Z,2.17
2023-05-01T13:23:40.052Z,1.70
2023-05-01T13:27:06.218Z,2.27
2023-05-01T13:30:33.720Z,2.00
2023-05-01T13:34:00.349Z,1.90
2023-05-01T13:37:24.087Z,2.00
2023-05-01T13:40:47.827Z,1.87
2023-05-01T13:44:11.743Z,1.90
2023-05-01T13:47:39.643Z,1.90
2023-05-01T13:51:05.962Z,1.60
2023-05-01T13:54:29.684Z,2.30
2023-05-01T13:57:53.480Z,1.90
2023-05-01T14:01:20.450Z,2.30
2023-05-01T14:04:44.595Z,2.20
2023-05-01T14:08:15.694Z,1.90
2023-05-01T14:11:46.528Z,2.13
2023-05-01T14:15:11.987Z,2.07
2023-05-01T14:18:36.468Z,2.13
2023-05-01T14:22:00.706Z,2.10
2023-05-01T14:25:28.372Z,2.10
2023-05-01T14:28:52.165Z,1.70
2023-05-01T14:32:17.030Z,1.70
2023-05-01T14:35:48.697Z,1.90
2023-05-01T14:39:15.654Z,2.00
2023-05-01T14:42:43.079Z,2.33
2023-05-01T14:46:07.511Z,2.03
2023-05-01T14:49:31.092Z,2.27
2023-05-01T14:52:55.286Z,2.87
2023-05-01T14:56:18.992Z,2.67
2023-05-01T14:59:43.936Z,2.03
2023-05-01T15:03:07.590Z,1.80
2023-05-01T15:06:33.690Z,2.03
2023-05-01T15:09:57.367Z,2.10
2023-05-01T15:13:21.274Z,2.87
2023-05-01T15:16:46.959Z,8.33
2023-05-01T15:20:12.704Z,1.90
2023-05-01T15:23:37.003Z,1.80
2023-05-01T15:27:00.900Z,2.00
2023-05-01T15:30:25.037Z,2.00
2023-05-01T15:33:50.345Z,1.97
2023-05-01T15:37:14.080Z,1.83
2023-05-01T15:40:37.686Z,1.80
2023-05-01T15:44:01.335Z,2.10
2023-05-01T15:47:25.044Z,1.80
2023-05-01T15:50:50.158Z,2.07
2023-05-01T15:54:13.799Z,1.77
2023-05-01T15:57:37.358Z,1.77
2023-05-01T16:01:00.957Z,1.83
2023-05-01T16:04:24.551Z,2.03
2023-05-01T16:07:52.158Z,2.00
2023-05-01T16:11:16.022Z,2.93
2023-05-01T16:14:40.963Z,2.70
2023-05-01T16:18:05.455Z,2.60
2023-05-01T16:21:29.728Z,2.53
2023-05-01T16:24:54.711Z,2.70
2023-05-01T16:28:18.520Z,2.40
2023-05-01T16:31:47.193Z,2.10
2023-05-01T16:35:11.908Z,2.27
2023-05-01T16:38:35.667Z,3.00
2023-05-01T16:42:01.578Z,2.37
2023-05-01T16:45:25.168Z,2.70
2023-05-01T16:48:48.785Z,2.30
2023-05-01T16:52:15.628Z,1.67
2023-05-01T16:55:39.314Z,2.17
2023-05-01T16:59:04.527Z,2.10
2023-05-01T17:02:28.865Z,2.37
2023-05-01T17:05:52.458Z,2.50
2023-05-01T17:09:16.084Z,2.30
2023-05-01T17:12:51.055Z,2.30
2023-05-01T17:16:15.996Z,2.33
2023-05-01T17:19:39.662Z,2.30
2023-05-01T17:23:03.379Z,3.47
2023-05-01T17:26:26.938Z,3.10
2023-05-01T17:29:50.473Z,3.80
2023-05-01T17:33:15.796Z,3.30
2023-05-01T17:36:39.407Z,2.80
2023-05-01T17:40:04.086Z,3.03
2023-05-01T17:43:27.684Z,2.60
2023-05-01T17:46:51.659Z,2.90
2023-05-01T17:50:16.944Z,2.80
2023-05-01T17:53:40.777Z,2.47
2023-05-01T17:57:04.432Z,2.43
2023-05-01T18:00:28.678Z,2.27
2023-05-01T18:03:52.460Z,2.40
2023-05-01T18:07:17.589Z,2.93
2023-05-01T18:10:41.358Z,3.30
2023-05-01T18:14:16.356Z,2.50
2023-05-01T18:17:54.976Z,2.77
2023-05-01T18:21:18.510Z,2.50
2023-05-01T18:24:43.365Z,3.20
2023-05-01T18:28:07.274Z,3.00
2023-05-01T18:31:30.907Z,2.27
2023-05-01T18:34:54.833Z,2.20
2023-05-01T18:38:18.446Z,2.13
2023-05-01T18:41:43.410Z,1.90
2023-05-01T18:45:08.245Z,2.00
2023-05-01T18:48:32.010Z,2.93
2023-05-01T18:51:55.511Z,3.00
2023-05-01T18:55:19.403Z,2.10
2023-05-01T18:58:44.274Z,2.50
2023-05-01T19:02:08.049Z,2.00
2023-05-01T19:05:32.732Z,2.47
2023-05-01T19:08:56.413Z,2.33
2023-05-01T19:12:20.005Z,2.20
2023-05-01T19:15:44.854Z,2.60
2023-05-01T19:19:09.388Z,2.10
2023-05-01T19:22:32.949Z,2.40
2023-05-01T19:25:56.665Z,2.80
2023-05-01T19:29:20.263Z,2.20
2023-05-01T19:32:45.695Z,2.80
2023-05-01T19:36:09.260Z,2.53
2023-05-01T19:39:32.825Z,2.30
2023-05-01T19:42:56.707Z,3.10
2023-05-01T19:46:20.313Z,3.40
2023-05-01T19:49:45.294Z,3.13
2023-05-01T19:53:08.818Z,2.97
2023-05-01T19:56:32.396Z,3.57
2023-05-01T19:59:58.726Z,2.87
2023-05-01T20:03:22.774Z,2.90
2023-05-01T20:06:48.221Z,3.20
2023-05-01T20:10:12.235Z,3.00
2023-05-01T20:13:36.695Z,3.80
2023-05-01T20:17:00.557Z,3.40
2023-05-01T20:20:24.213Z,3.40
2023-05-01T20:23:49.642Z,3.47
2023-05-01T20:27:13.552Z,3.90
2023-05-01T20:30:39.019Z,4.00
2023-05-01T20:34:02.591Z,4.33
2023-05-01T20:37:26.068Z,4.00
2023-05-01T20:40:51.643Z,4.40
2023-05-01T20:44:15.537Z,4.10
2023-05-01T20:47:39.056Z,4.40
2023-05-01T20:51:02.649Z,5.00
2023-05-01T20:54:26.231Z,5.00
2023-05-01T20:57:51.097Z,4.90
2023-05-01T21:01:16.247Z,4.47
2023-05-01T21:04:41.428Z,5.03
2023-05-01T21:08:05.052Z,5.10
2023-05-01T21:11:28.563Z,5.00
2023-05-01T21:14:53.556Z,6.03
2023-05-01T21:18:20.254Z,4.63
2023-05-01T21:21:43.939Z,4.23
2023-05-01T21:25:09.386Z,5.70
2023-05-01T21:28:32.941Z,4.70
2023-05-01T21:31:57.945Z,4.27
2023-05-01T21:35:21.850Z,4.30
2023-05-01T21:38:46.241Z,5.07
2023-05-01T21:42:10.006Z,4.63
2023-05-01T21:45:39.845Z,4.70
2023-05-01T21:49:05.221Z,5.30
2023-05-01T21:52:30.151Z,4.40
2023-05-01T21:55:53.657Z,3.93
2023-05-01T21:59:18.734Z,5.30
2023-05-01T22:02:43.536Z,3.97
2023-05-01T22:06:08.564Z,4.40
2023-05-01T22:09:32.421Z,5.10
2023-05-01T22:12:55.887Z,4.57
2023-05-01T22:16:19.901Z,4.80
2023-05-01T22:19:44.412Z,5.27
2023-05-01T22:23:09.289Z,5.17
2023-05-01T22:26:32.827Z,5.03
2023-05-01T22:29:56.378Z,4.13
2023-05-01T22:33:19.883Z,4.30
2023-05-01T22:36:43.453Z,3.70
2023-05-01T22:40:09.621Z,4.67
2023-05-01T22:43:33.161Z,4.97
2023-05-01T22:46:59.225Z,4.60
2023-05-01T22:50:22.719Z,4.40
2023-05-01T22:53:46.221Z,4.43
2023-05-01T22:57:11.141Z,5.33
2023-05-01T23:00:37.270Z,5.27
2023-05-01T23:04:01.131Z,4.73
2023-05-01T23:07:24.822Z,5.47
2023-05-01T23:10:48.422Z,4.60
2023-05-01T23:14:13.319Z,4.50
2023-05-01T23:17:36.934Z,4.43
2023-05-01T23:21:00.821Z,5.10
2023-05-01T23:24:24.296Z,4.43
2023-05-01T23:27:51.379Z,4.67
2023-05-01T23:31:21.948Z,4.33
2023-05-01T23:34:45.592Z,5.33
2023-05-01T23:38:09.059Z,4.70
2023-05-01T23:41:32.667Z,4.60
2023-05-01T23:44:56.742Z,3.80
2023-05-01T23:48:21.733Z,4.00
2023-05-01T23:51:45.336Z,3.50
2023-05-01T23:55:09.242Z,3.80
2023-05-01T23:58:32.779Z,3.50
